Time;durP1;ratioP1;P1;durP2;ratioP2;P2;SDS_P1;SDS_P2;PMS_P1;PMS_P2;Temp;Humidity;BMP_temperature;BMP_pressure;BME280_temperature;BME280_humidity;BME280_pressure;Samples;Min_cycle;Max_cycle;Signal;HPM_P1;HPM_P2
2022/07/14 00:00:19;;;;;;;4.00;1.77;;;;;;;;;;5077549;27;89732;-62
2022/07/14 00:02:46;;;;;;;2.90;1.33;;;;;;;;;;5077659;27;88018;-61
2022/07/14 00:05:12;;;;;;;3.22;1.00;;;;;;;;;;5065134;27;88858;-61
2022/07/14 00:07:39;;;;;;;4.75;1.90;;;;;;;;;;5090235;27;89087;-61
2022/07/14 00:10:05;;;;;;;2.83;1.27;;;;;;;;;;5077920;27;88682;-61
2022/07/14 00:12:31;;;;;;;3.20;1.10;;;;;;;;;;5077856;27;89211;-61
2022/07/14 00:14:58;;;;;;;2.08;1.40;;;;;;;;;;5078084;27;88196;-61
2022/07/14 00:17:24;;;;;;;3.85;1.20;;;;;;;;;;5081249;27;89758;-61
2022/07/14 00:19:51;;;;;;;2.75;1.30;;;;;;;;;;5081173;27;89117;-61
2022/07/14 00:22:17;;;;;;;2.97;1.35;;;;;;;;;;5081765;27;88939;-62
2022/07/14 00:24:50;;;;;;;4.82;1.33;;;;;;;;;;5081426;27;89660;-62
2022/07/14 00:27:16;;;;;;;2.65;1.00;;;;;;;;;;5063147;27;89276;-61
2022/07/14 00:29:43;;;;;;;3.85;1.25;;;;;;;;;;5084546;27;88981;-61
2022/07/14 00:32:09;;;;;;;1.80;1.13;;;;;;;;;;5081357;27;88868;-61
2022/07/14 00:34:35;;;;;;;4.90;1.38;;;;;;;;;;5080461;27;88097;-61
2022/07/14 00:37:02;;;;;;;3.25;1.20;;;;;;;;;;5081378;27;89671;-61
2022/07/14 00:39:54;;;;;;;2.63;1.08;;;;;;;;;;5081099;27;89011;-61
2022/07/14 00:42:24;;;;;;;2.08;1.20;;;;;;;;;;5081712;27;87690;-61
2022/07/14 00:44:50;;;;;;;2.33;1.00;;;;;;;;;;5081592;27;89129;-61
2022/07/14 00:47:16;;;;;;;4.10;1.08;;;;;;;;;;5063252;27;89290;-61
2022/07/14 00:49:43;;;;;;;4.10;1.33;;;;;;;;;;5083567;27;88864;-61
2022/07/14 00:52:09;;;;;;;4.35;1.23;;;;;;;;;;5081453;27;90079;-62
2022/07/14 00:54:35;;;;;;;5.13;1.52;;;;;;;;;;5081368;27;88739;-62
2022/07/14 00:57:02;;;;;;;1.83;0.95;;;;;;;;;;5080908;27;88909;-62
2022/07/14 00:59:28;;;;;;;1.88;0.90;;;;;;;;;;5081186;27;90306;-61
2022/07/14 01:01:54;;;;;;;3.47;1.10;;;;;;;;;;5080571;27;88057;-61
2022/07/14 01:04:21;;;;;;;1.98;0.95;;;;;;;;;;5080552;27;88824;-61
2022/07/14 01:06:47;;;;;;;4.45;1.42;;;;;;;;;;5081509;27;89070;-61
2022/07/14 01:09:14;;;;;;;2.95;1.48;;;;;;;;;;5080473;27;87963;-62
2022/07/14 01:11:40;;;;;;;1.67;1.00;;;;;;;;;;5083535;27;88818;-61
2022/07/14 01:14:07;;;;;;;3.28;1.15;;;;;;;;;;5080475;27;89211;-61
2022/07/14 01:16:33;;;;;;;1.08;0.75;;;;;;;;;;5080971;27;90418;-62
2022/07/14 01:18:59;;;;;;;3.05;1.33;;;;;;;;;;5080729;27;90256;-62
2022/07/14 01:21:26;;;;;;;3.20;1.10;;;;;;;;;;5080622;27;88007;-62
2022/07/14 01:23:52;;;;;;;3.47;1.23;;;;;;;;;;5080402;27;88677;-61
2022/07/14 01:26:18;;;;;;;1.60;0.85;;;;;;;;;;5080860;27;90361;-61
2022/07/14 01:28:45;;;;;;;2.58;1.05;;;;;;;;;;5079835;27;88031;-62
2022/07/14 01:31:11;;;;;;;1.95;1.10;;;;;;;;;;5080335;27;89136;-61
2022/07/14 01:33:37;;;;;;;3.53;1.38;;;;;;;;;;5082567;27;89391;-62
2022/07/14 01:36:05;;;;;;;1.75;1.08;;;;;;;;;;5080055;27;88746;-61
2022/07/14 01:38:31;;;;;;;2.05;0.98;;;;;;;;;;5079562;27;89828;-61
2022/07/14 01:40:57;;;;;;;1.88;0.90;;;;;;;;;;5080407;27;89069;-62
2022/07/14 01:43:24;;;;;;;3.50;1.17;;;;;;;;;;5080416;27;88623;-61
2022/07/14 01:45:50;;;;;;;2.17;1.00;;;;;;;;;;5080240;27;88803;-61
2022/07/14 01:48:16;;;;;;;3.00;1.10;;;;;;;;;;5080092;27;88014;-61
2022/07/14 01:50:42;;;;;;;1.23;0.95;;;;;;;;;;5079912;27;88958;-61
2022/07/14 01:53:09;;;;;;;2.92;1.38;;;;;;;;;;5080161;27;89102;-61
2022/07/14 01:55:35;;;;;;;2.28;1.25;;;;;;;;;;5083201;27;87371;-61
2022/07/14 01:58:01;;;;;;;3.45;1.00;;;;;;;;;;5079765;27;89147;-61
2022/07/14 02:00:27;;;;;;;2.88;1.20;;;;;;;;;;5079375;27;87959;-61
2022/07/14 02:02:54;;;;;;;2.53;1.10;;;;;;;;;;5079757;27;89903;-61
2022/07/14 02:05:20;;;;;;;1.80;1.08;;;;;;;;;;5079718;27;89396;-61
2022/07/14 02:07:47;;;;;;;2.85;1.17;;;;;;;;;;5079568;27;88012;-61
2022/07/14 02:12:58;;;;;;;2.70;1.02;;;;;;;;;;5079595;27;89286;-61
2022/07/14 02:15:24;;;;;;;4.90;1.35;;;;;;;;;;5079817;27;87993;-62
2022/07/14 02:17:50;;;;;;;1.83;0.90;;;;;;;;;;5082404;27;88681;-61
2022/07/14 02:20:17;;;;;;;1.98;1.13;;;;;;;;;;5079894;27;88122;-61
2022/07/14 02:22:43;;;;;;;2.67;1.08;;;;;;;;;;5080099;27;89240;-61
2022/07/14 02:25:11;;;;;;;3.15;1.30;;;;;;;;;;5079190;27;89093;-61
2022/07/14 02:27:38;;;;;;;2.33;1.08;;;;;;;;;;5078781;27;88759;-61
2022/07/14 02:30:05;;;;;;;1.70;1.00;;;;;;;;;;5061261;27;89509;-61
2022/07/14 02:32:31;;;;;;;2.35;1.20;;;;;;;;;;5079461;27;88847;-61
2022/07/14 02:34:58;;;;;;;1.67;0.98;;;;;;;;;;5078757;27;88374;-61
2022/07/14 02:37:24;;;;;;;2.15;1.10;;;;;;;;;;5079378;27;88756;-61
2022/07/14 02:39:51;;;;;;;2.65;1.33;;;;;;;;;;5080869;27;89005;-61
2022/07/14 02:42:17;;;;;;;1.77;1.10;;;;;;;;;;5079213;27;88832;-61
2022/07/14 02:44:44;;;;;;;2.50;1.00;;;;;;;;;;5080123;27;89373;-61
2022/07/14 02:47:10;;;;;;;2.53;1.20;;;;;;;;;;5079273;27;87994;-62
2022/07/14 02:49:36;;;;;;;1.90;1.00;;;;;;;;;;5079270;27;88985;-61
2022/07/14 02:52:03;;;;;;;3.78;0.98;;;;;;;;;;5078930;27;90777;-61
2022/07/14 02:54:29;;;;;;;1.85;0.90;;;;;;;;;;5078843;27;88231;-61
2022/07/14 02:56:55;;;;;;;1.85;0.90;;;;;;;;;;5078914;27;88775;-61
2022/07/14 02:59:22;;;;;;;1.55;0.95;;;;;;;;;;5082145;27;90313;-61
2022/07/14 03:01:48;;;;;;;1.77;0.95;;;;;;;;;;5078985;27;88945;-61
2022/07/14 03:04:14;;;;;;;1.55;0.80;;;;;;;;;;5079270;27;87954;-61
2022/07/14 03:06:41;;;;;;;2.45;1.20;;;;;;;;;;5078471;27;88272;-61
2022/07/14 03:09:07;;;;;;;2.20;1.05;;;;;;;;;;5078751;27;88806;-61
2022/07/14 03:11:34;;;;;;;0.95;0.80;;;;;;;;;;5078711;27;89062;-61
2022/07/14 03:14:00;;;;;;;3.08;1.10;;;;;;;;;;5079201;27;88901;-62
2022/07/14 03:16:26;;;;;;;1.67;1.00;;;;;;;;;;5078903;27;89749;-61
2022/07/14 03:18:53;;;;;;;2.38;1.23;;;;;;;;;;5078741;27;89328;-61
2022/07/14 03:21:19;;;;;;;1.65;0.95;;;;;;;;;;5081579;27;88158;-62
2022/07/14 03:23:45;;;;;;;2.90;1.45;;;;;;;;;;5078744;27;90219;-61
2022/07/14 03:26:12;;;;;;;2.83;1.08;;;;;;;;;;5078342;27;87937;-61
2022/07/14 03:28:38;;;;;;;1.08;0.68;;;;;;;;;;5078447;27;88636;-61
2022/07/14 03:31:04;;;;;;;1.55;0.80;;;;;;;;;;5078289;27;87936;-61
2022/07/14 03:33:31;;;;;;;1.40;0.85;;;;;;;;;;5078638;27;87739;-61
2022/07/14 03:35:58;;;;;;;1.63;0.90;;;;;;;;;;5078717;27;89556;-61
2022/07/14 03:38:24;;;;;;;1.50;0.98;;;;;;;;;;5078783;27;89641;-61
2022/07/14 03:41:03;;;;;;;1.13;0.80;;;;;;;;;;5077720;27;88688;-61
2022/07/14 03:43:30;;;;;;;1.77;0.90;;;;;;;;;;5081315;27;89772;-61
2022/07/14 03:45:57;;;;;;;1.58;0.82;;;;;;;;;;5078457;27;88274;-61
2022/07/14 03:48:23;;;;;;;2.50;1.10;;;;;;;;;;5078885;27;89751;-61
2022/07/14 03:50:50;;;;;;;1.85;1.00;;;;;;;;;;5079474;27;88930;-61
2022/07/14 03:53:16;;;;;;;2.63;1.13;;;;;;;;;;5081790;27;87972;-61
2022/07/14 03:55:43;;;;;;;2.30;0.98;;;;;;;;;;5081754;27;89195;-61
2022/07/14 03:58:17;;;;;;;1.77;0.90;;;;;;;;;;5082352;27;87176;-61
2022/07/14 04:00:44;;;;;;;1.83;0.98;;;;;;;;;;5081584;27;87967;-61
2022/07/14 04:03:11;;;;;;;3.63;1.13;;;;;;;;;;5081301;27;88651;-61
2022/07/14 04:05:38;;;;;;;1.42;0.90;;;;;;;;;;5065924;27;89819;-61
2022/07/14 04:08:04;;;;;;;2.25;0.90;;;;;;;;;;5081629;27;89657;-62
2022/07/14 04:10:31;;;;;;;1.70;0.85;;;;;;;;;;5081925;27;89999;-61
2022/07/14 04:12:57;;;;;;;1.15;0.77;;;;;;;;;;5081439;27;87961;-61
2022/07/14 04:15:23;;;;;;;1.50;0.90;;;;;;;;;;5081967;27;88764;-61
2022/07/14 04:17:49;;;;;;;1.40;0.80;;;;;;;;;;5081667;27;89939;-61
2022/07/14 04:20:16;;;;;;;1.27;0.82;;;;;;;;;;5081766;27;88903;-61
2022/07/14 04:22:43;;;;;;;1.95;0.73;;;;;;;;;;5081610;27;87844;-61
2022/07/14 04:25:09;;;;;;;1.55;0.70;;;;;;;;;;5081968;27;90151;-61
2022/07/14 04:27:36;;;;;;;1.85;1.02;;;;;;;;;;5084570;27;89100;-61
2022/07/14 04:30:02;;;;;;;1.52;1.00;;;;;;;;;;5080899;27;90214;-61
2022/07/14 04:32:28;;;;;;;1.88;1.02;;;;;;;;;;5081011;27;88010;-62
2022/07/14 04:34:55;;;;;;;1.40;0.93;;;;;;;;;;5081763;27;89211;-61
2022/07/14 04:37:21;;;;;;;0.65;0.65;;;;;;;;;;5080909;27;88876;-61
2022/07/14 04:39:47;;;;;;;0.90;0.60;;;;;;;;;;5080775;27;88047;-63
2022/07/14 04:42:14;;;;;;;1.20;0.90;;;;;;;;;;5081331;27;88629;-62
2022/07/14 04:44:41;;;;;;;1.63;0.80;;;;;;;;;;5081978;27;88336;-61
2022/07/14 04:47:08;;;;;;;1.15;0.68;;;;;;;;;;5081408;27;88054;-61
2022/07/14 04:52:19;;;;;;;1.08;0.70;;;;;;;;;;5080982;27;87967;-61
2022/07/14 04:54:47;;;;;;;0.98;0.70;;;;;;;;;;5080196;27;88587;-61
2022/07/14 04:57:14;;;;;;;1.88;0.95;;;;;;;;;;5080483;27;89212;-61
2022/07/14 04:59:40;;;;;;;3.17;0.90;;;;;;;;;;5080407;27;88008;-61
2022/07/14 05:02:07;;;;;;;0.90;0.70;;;;;;;;;;5079785;27;88635;-62
2022/07/14 05:04:34;;;;;;;2.00;0.90;;;;;;;;;;5080199;27;89052;-61
2022/07/14 05:07:00;;;;;;;1.45;0.73;;;;;;;;;;5081001;27;87993;-61
2022/07/14 05:09:30;;;;;;;0.63;0.63;;;;;;;;;;5083455;27;88858;-62
2022/07/14 05:11:56;;;;;;;2.45;0.85;;;;;;;;;;5081016;27;88328;-61
2022/07/14 05:14:22;;;;;;;1.48;0.80;;;;;;;;;;5080514;27;88142;-61
2022/07/14 05:16:49;;;;;;;1.90;1.00;;;;;;;;;;5080678;27;89404;-62
2022/07/14 05:19:35;;;;;;;1.63;0.90;;;;;;;;;;5080366;27;88778;-61
2022/07/14 05:22:01;;;;;;;2.25;0.68;;;;;;;;;;5080280;27;89337;-61
2022/07/14 05:24:28;;;;;;;2.67;0.82;;;;;;;;;;5080728;27;89957;-61
2022/07/14 05:26:56;;;;;;;1.05;0.70;;;;;;;;;;5080424;27;87944;-61
2022/07/14 05:29:22;;;;;;;0.80;0.70;;;;;;;;;;5080780;27;89876;-62
2022/07/14 05:31:48;;;;;;;1.58;0.77;;;;;;;;;;5083747;27;90293;-62
2022/07/14 05:34:15;;;;;;;1.92;0.95;;;;;;;;;;5079960;27;89990;-62
2022/07/14 05:36:41;;;;;;;1.27;0.73;;;;;;;;;;5080703;27;88018;-62
2022/07/14 05:39:07;;;;;;;1.45;0.70;;;;;;;;;;5079815;27;87966;-62
2022/07/14 05:41:34;;;;;;;1.33;0.80;;;;;;;;;;5080682;27;87983;-62
2022/07/14 05:44:00;;;;;;;2.35;0.73;;;;;;;;;;5079468;27;89978;-62
2022/07/14 05:46:26;;;;;;;1.13;0.77;;;;;;;;;;5062284;27;88673;-62
2022/07/14 05:48:53;;;;;;;1.05;0.60;;;;;;;;;;5080410;27;89783;-62
2022/07/14 05:51:20;;;;;;;2.22;0.80;;;;;;;;;;5080159;27;89440;-61
2022/07/14 05:53:46;;;;;;;1.63;0.82;;;;;;;;;;5082604;27;88114;-62
2022/07/14 05:56:16;;;;;;;1.77;0.60;;;;;;;;;;5079688;27;89376;-62
2022/07/14 05:58:43;;;;;;;1.23;0.60;;;;;;;;;;5080197;27;88998;-62
2022/07/14 06:01:10;;;;;;;2.88;1.08;;;;;;;;;;5080269;27;88949;-61
2022/07/14 06:03:37;;;;;;;1.77;0.90;;;;;;;;;;5079497;27;88995;-61
2022/07/14 06:06:05;;;;;;;1.38;0.80;;;;;;;;;;5079776;27;88426;-62
2022/07/14 06:08:32;;;;;;;1.25;0.70;;;;;;;;;;5079141;27;89022;-62
2022/07/14 06:10:58;;;;;;;1.33;0.68;;;;;;;;;;5079933;27;89267;-61
2022/07/14 06:13:25;;;;;;;1.50;0.85;;;;;;;;;;5079728;27;87952;-62
2022/07/14 06:15:52;;;;;;;1.27;0.60;;;;;;;;;;5082371;27;88944;-62
2022/07/14 06:18:19;;;;;;;1.58;0.75;;;;;;;;;;5079862;27;87961;-61
2022/07/14 06:20:47;;;;;;;1.63;0.80;;;;;;;;;;5079100;27;88903;-62
2022/07/14 06:23:13;;;;;;;0.80;0.68;;;;;;;;;;5079986;27;90297;-62
2022/07/14 06:25:40;;;;;;;3.17;0.82;;;;;;;;;;5061939;27;88096;-62
2022/07/14 06:28:07;;;;;;;1.25;0.70;;;;;;;;;;5079408;27;88492;-61
2022/07/14 06:30:34;;;;;;;1.63;0.77;;;;;;;;;;5061449;27;89113;-62
2022/07/14 06:33:00;;;;;;;2.15;0.93;;;;;;;;;;5078674;27;88739;-62
2022/07/14 06:35:27;;;;;;;1.40;0.88;;;;;;;;;;5079460;27;90450;-62
2022/07/14 06:38:14;;;;;;;1.52;0.90;;;;;;;;;;5082747;27;92121;-62
2022/07/14 06:40:40;;;;;;;3.33;1.00;;;;;;;;;;5079659;27;89658;-61
2022/07/14 06:43:06;;;;;;;1.90;0.80;;;;;;;;;;5078997;27;89124;-62
2022/07/14 06:45:34;;;;;;;2.30;1.08;;;;;;;;;;5079286;27;88041;-61
2022/07/14 06:48:00;;;;;;;3.00;0.98;;;;;;;;;;5079612;27;89835;-61
2022/07/14 06:50:26;;;;;;;1.25;0.80;;;;;;;;;;5079623;27;88151;-61
2022/07/14 06:52:52;;;;;;;2.00;1.00;;;;;;;;;;5078644;27;88126;-62
2022/07/14 06:55:19;;;;;;;1.83;0.93;;;;;;;;;;5079002;27;88590;-62
2022/07/14 06:57:45;;;;;;;2.22;0.90;;;;;;;;;;5078788;27;91026;-62
2022/07/14 07:00:12;;;;;;;1.77;0.85;;;;;;;;;;5082181;27;88010;-62
2022/07/14 07:02:38;;;;;;;2.08;0.70;;;;;;;;;;5078488;27;89523;-62
2022/07/14 07:07:51;;;;;;;3.63;0.90;;;;;;;;;;5079144;27;90146;-62
2022/07/14 07:10:18;;;;;;;3.05;1.00;;;;;;;;;;5078810;27;89204;-62
2022/07/14 07:12:44;;;;;;;1.17;0.70;;;;;;;;;;5078420;27;88033;-63
2022/07/14 07:15:10;;;;;;;0.88;0.70;;;;;;;;;;5079994;27;89821;-62
2022/07/14 07:17:37;;;;;;;2.05;0.90;;;;;;;;;;5078588;27;87954;-62
2022/07/14 07:20:03;;;;;;;1.73;0.80;;;;;;;;;;5081745;27;88226;-62
2022/07/14 07:22:30;;;;;;;3.58;1.10;;;;;;;;;;5078459;27;90876;-62
2022/07/14 07:24:56;;;;;;;1.63;0.93;;;;;;;;;;5078129;27;88047;-61
2022/07/14 07:27:23;;;;;;;2.47;0.77;;;;;;;;;;5078103;27;88902;-62
2022/07/14 07:29:49;;;;;;;2.78;0.90;;;;;;;;;;5078530;27;89037;-61
2022/07/14 07:32:15;;;;;;;2.10;0.98;;;;;;;;;;5078405;27;87950;-61
2022/07/14 07:34:43;;;;;;;3.20;1.17;;;;;;;;;;5078193;27;88681;-62
2022/07/14 07:37:11;;;;;;;3.25;1.08;;;;;;;;;;5078723;27;88561;-62
2022/07/14 07:39:51;;;;;;;3.13;1.35;;;;;;;;;;5078609;27;87993;-62
2022/07/14 07:42:17;;;;;;;1.95;1.00;;;;;;;;;;5081021;27;88063;-62
2022/07/14 07:44:44;;;;;;;1.77;0.93;;;;;;;;;;5078388;27;88010;-62
2022/07/14 07:47:10;;;;;;;1.83;0.70;;;;;;;;;;5078032;27;88719;-62
2022/07/14 07:49:36;;;;;;;1.52;0.82;;;;;;;;;;5060147;27;89036;-62
2022/07/14 07:52:03;;;;;;;3.72;0.90;;;;;;;;;;5078281;27;87994;-62
2022/07/14 07:54:29;;;;;;;1.52;0.88;;;;;;;;;;5078223;27;87939;-62
2022/07/14 07:57:15;;;;;;;2.65;1.05;;;;;;;;;;5078377;27;88687;-62
2022/07/14 07:59:42;;;;;;;1.08;0.70;;;;;;;;;;5078192;27;88440;-61
2022/07/14 08:02:08;;;;;;;2.00;1.00;;;;;;;;;;5078267;27;88690;-62
2022/07/14 08:04:35;;;;;;;1.65;0.70;;;;;;;;;;5063274;27;88512;-62
2022/07/14 08:07:02;;;;;;;1.88;0.70;;;;;;;;;;5077583;27;88005;-62
2022/07/14 08:09:28;;;;;;;1.80;0.80;;;;;;;;;;5078447;27;90010;-62
2022/07/14 08:11:55;;;;;;;1.65;0.88;;;;;;;;;;5077592;27;88718;-62
2022/07/14 08:17:06;;;;;;;1.27;0.70;;;;;;;;;;5078206;27;88972;-62
2022/07/14 08:19:33;;;;;;;2.10;0.98;;;;;;;;;;5077429;27;88074;-62
2022/07/14 08:21:59;;;;;;;1.50;0.77;;;;;;;;;;5077879;27;88807;-62
2022/07/14 08:24:25;;;;;;;2.35;0.77;;;;;;;;;;5078259;27;90041;-62
2022/07/14 08:26:52;;;;;;;2.20;1.08;;;;;;;;;;5080572;27;88039;-62
2022/07/14 08:29:18;;;;;;;0.90;0.60;;;;;;;;;;5060422;27;87892;-61
2022/07/14 08:31:44;;;;;;;1.77;0.88;;;;;;;;;;5078210;27;89056;-62
2022/07/14 08:34:11;;;;;;;3.65;0.90;;;;;;;;;;5076734;27;88687;-62
2022/07/14 08:36:38;;;;;;;1.40;0.77;;;;;;;;;;5058968;27;89737;-62
2022/07/14 08:39:08;;;;;;;1.58;1.00;;;;;;;;;;5081050;27;88372;-62
2022/07/14 08:41:34;;;;;;;;;;;;;;;;;;5081569;27;89039;-62
2022/07/14 08:44:01;;;;;;;2.08;1.02;;;;;;;;;;5081981;27;119728;-62
2022/07/14 08:46:28;;;;;;;1.35;0.77;;;;;;;;;;5081560;27;88738;-61
2022/07/14 08:48:55;;;;;;;2.67;1.00;;;;;;;;;;5084349;27;89758;-62
2022/07/14 08:51:22;;;;;;;1.98;1.00;;;;;;;;;;5080903;27;88190;-61
2022/07/14 08:53:48;;;;;;;2.67;0.90;;;;;;;;;;5082011;27;89946;-62
2022/07/14 08:56:14;;;;;;;1.40;0.88;;;;;;;;;;5080933;27;89183;-61
2022/07/14 08:58:41;;;;;;;2.50;0.80;;;;;;;;;;5080718;27;87935;-62
2022/07/14 09:01:08;;;;;;;1.95;0.85;;;;;;;;;;5080310;27;90407;-62
2022/07/14 09:03:35;;;;;;;1.58;0.85;;;;;;;;;;5081032;27;90056;-62
2022/07/14 09:06:41;;;;;;;1.95;0.68;;;;;;;;;;5081030;27;88029;-62
2022/07/14 09:09:07;;;;;;;1.58;0.75;;;;;;;;;;5083515;27;87923;-62
2022/07/14 09:11:33;;;;;;;1.13;0.52;;;;;;;;;;5081201;27;89308;-62
2022/07/14 09:14:09;;;;;;;1.73;0.82;;;;;;;;;;5063073;27;89815;-62
2022/07/14 09:16:36;;;;;;;1.73;0.95;;;;;;;;;;5080913;27;89194;-62
2022/07/14 09:19:06;;;;;;;1.00;0.57;;;;;;;;;;5081556;27;87765;-62
2022/07/14 09:21:33;;;;;;;1.83;0.85;;;;;;;;;;5080126;27;88423;-62
2022/07/14 09:24:00;;;;;;;2.00;1.13;;;;;;;;;;5080333;27;89157;-62
2022/07/14 09:26:26;;;;;;;0.93;0.65;;;;;;;;;;5079726;27;88726;-62
2022/07/14 09:28:53;;;;;;;1.88;0.50;;;;;;;;;;5080902;27;90832;-62
2022/07/14 09:31:24;;;;;;;1.42;0.73;;;;;;;;;;5083145;27;88988;-61
2022/07/14 09:33:52;;;;;;;2.08;1.02;;;;;;;;;;5079775;27;88883;-61
2022/07/14 09:36:22;;;;;;;1.90;0.98;;;;;;;;;;5080194;27;88987;-61
2022/07/14 09:38:49;;;;;;;1.33;0.70;;;;;;;;;;5080328;27;88002;-62
2022/07/14 09:41:16;;;;;;;1.38;0.70;;;;;;;;;;5080257;27;88030;-61
2022/07/14 09:44:02;;;;;;;1.65;0.70;;;;;;;;;;5081071;27;89290;-61
2022/07/14 09:46:47;;;;;;;1.58;0.80;;;;;;;;;;5093731;27;87959;-62
2022/07/14 09:49:14;;;;;;;2.58;1.00;;;;;;;;;;5100425;27;88673;-61
2022/07/14 09:52:00;;;;;;;1.95;0.80;;;;;;;;;;5099977;27;89713;-62
2022/07/14 09:54:39;;;;;;;1.17;0.70;;;;;;;;;;5104126;27;89186;-62
2022/07/14 09:57:25;;;;;;;1.70;0.90;;;;;;;;;;5100532;27;89321;-62
2022/07/14 09:59:53;;;;;;;0.88;0.70;;;;;;;;;;5100902;27;88636;-62
2022/07/14 10:02:21;;;;;;;2.03;0.77;;;;;;;;;;5100582;27;87921;-62
2022/07/14 10:04:49;;;;;;;1.10;0.60;;;;;;;;;;5100171;27;88071;-62
2022/07/14 10:07:16;;;;;;;3.03;0.82;;;;;;;;;;5092283;27;88695;-62
2022/07/14 10:09:50;;;;;;;1.58;0.77;;;;;;;;;;5080560;27;90259;-62
2022/07/14 10:12:17;;;;;;;1.00;0.80;;;;;;;;;;5079597;27;89266;-62
2022/07/14 10:14:43;;;;;;;0.63;0.60;;;;;;;;;;5079488;27;87951;-62
2022/07/14 10:17:10;;;;;;;2.45;0.70;;;;;;;;;;5082826;27;90158;-61
2022/07/14 10:19:37;;;;;;;2.25;0.65;;;;;;;;;;5079430;27;87999;-61
2022/07/14 10:22:04;;;;;;;2.88;0.80;;;;;;;;;;5079492;27;88977;-62
2022/07/14 10:24:31;;;;;;;2.20;0.80;;;;;;;;;;5079952;27;89452;-62
2022/07/14 10:26:58;;;;;;;3.13;0.65;;;;;;;;;;5079135;27;87913;-61
2022/07/14 10:29:24;;;;;;;3.55;0.85;;;;;;;;;;5079969;27;90138;-62
2022/07/14 10:32:09;;;;;;;1.45;0.98;;;;;;;;;;5079983;27;88062;-62
2022/07/14 10:34:36;;;;;;;0.80;0.50;;;;;;;;;;5079331;27;88167;-61
2022/07/14 10:37:17;;;;;;;0.68;0.50;;;;;;;;;;5078933;27;87911;-62
2022/07/14 10:39:48;;;;;;;0.55;0.55;;;;;;;;;;5082347;27;89013;-61
2022/07/14 10:42:23;;;;;;;1.92;0.85;;;;;;;;;;5078818;27;88891;-62
2022/07/14 10:44:50;;;;;;;1.45;0.70;;;;;;;;;;5079234;27;89134;-62
2022/07/14 10:47:17;;;;;;;0.98;0.68;;;;;;;;;;5079403;27;87982;-62
2022/07/14 10:50:00;;;;;;;4.43;0.90;;;;;;;;;;5079462;27;89709;-62
2022/07/14 10:52:28;;;;;;;1.35;0.70;;;;;;;;;;5079391;27;89998;-62
2022/07/14 10:55:13;;;;;;;2.30;0.90;;;;;;;;;;5079027;27;88029;-62
2022/07/14 10:57:59;;;;;;;1.23;0.52;;;;;;;;;;5079052;27;88779;-62
2022/07/14 11:00:41;;;;;;;1.25;0.60;;;;;;;;;;5078157;27;88434;-61
2022/07/14 11:03:20;;;;;;;0.95;0.65;;;;;;;;;;5081309;27;89820;-62
2022/07/14 11:06:03;;;;;;;2.17;0.77;;;;;;;;;;5078829;27;88921;-61
2022/07/14 11:09:07;;;;;;;1.65;0.65;;;;;;;;;;5078005;27;88715;-62
2022/07/14 11:11:34;;;;;;;1.67;0.65;;;;;;;;;;5064988;27;90462;-62
2022/07/14 11:14:00;;;;;;;0.60;0.60;;;;;;;;;;5079076;27;89211;-62
2022/07/14 11:16:45;;;;;;;0.90;0.60;;;;;;;;;;5078453;27;88353;-62
2022/07/14 11:19:19;;;;;;;1.23;0.80;;;;;;;;;;5078595;27;88770;-62
2022/07/14 11:22:04;;;;;;;0.95;0.50;;;;;;;;;;5079154;27;90232;-62
2022/07/14 11:24:31;;;;;;;1.70;0.77;;;;;;;;;;5081573;27;88040;-62
2022/07/14 11:27:17;;;;;;;2.40;0.73;;;;;;;;;;5078642;27;88099;-62
2022/07/14 11:29:45;;;;;;;2.70;0.60;;;;;;;;;;5078606;27;88211;-62
2022/07/14 11:32:29;;;;;;;2.60;0.57;;;;;;;;;;5078436;27;88964;-61
2022/07/14 11:38:00;;;;;;;0.63;0.50;;;;;;;;;;5078430;27;88053;-62
2022/07/14 11:40:44;;;;;;;1.25;0.63;;;;;;;;;;5078553;27;87993;-61
2022/07/14 11:43:29;;;;;;;2.50;0.75;;;;;;;;;;5078636;27;90074;-62
2022/07/14 11:45:56;;;;;;;1.05;0.68;;;;;;;;;;5078099;27;88036;-62
2022/07/14 11:48:27;;;;;;;0.82;0.60;;;;;;;;;;5081228;27;88727;-62
2022/07/14 11:51:00;;;;;;;2.15;0.70;;;;;;;;;;5078389;27;88046;-62
2022/07/14 11:53:27;;;;;;;2.58;0.70;;;;;;;;;;5078625;27;89208;-62
2022/07/14 11:55:54;;;;;;;0.85;0.50;;;;;;;;;;5078196;27;89070;-62
2022/07/14 11:58:23;;;;;;;2.80;0.77;;;;;;;;;;5078528;27;87966;-62
2022/07/14 12:00:54;;;;;;;1.65;0.80;;;;;;;;;;5077689;27;88644;-62
2022/07/14 12:03:21;;;;;;;1.92;0.68;;;;;;;;;;5077720;27;90041;-61
2022/07/14 12:05:52;;;;;;;0.60;0.47;;;;;;;;;;5089009;27;88173;-62
2022/07/14 12:08:23;;;;;;;0.80;0.80;;;;;;;;;;5081336;27;88801;-62
2022/07/14 12:10:50;;;;;;;1.08;0.57;;;;;;;;;;5081453;27;90069;-61
2022/07/14 12:13:18;;;;;;;0.70;0.52;;;;;;;;;;5063582;27;88802;-62
2022/07/14 12:15:44;;;;;;;1.38;0.60;;;;;;;;;;5081970;27;89377;-62
2022/07/14 12:18:12;;;;;;;0.82;0.60;;;;;;;;;;5082568;27;89712;-62
2022/07/14 12:20:40;;;;;;;0.60;0.60;;;;;;;;;;5082135;27;89063;-62
2022/07/14 12:23:06;;;;;;;1.88;0.80;;;;;;;;;;5081135;27;88797;-62
2022/07/14 12:25:34;;;;;;;1.13;0.80;;;;;;;;;;5081131;27;89163;-61
2022/07/14 12:28:02;;;;;;;0.77;0.57;;;;;;;;;;5081776;27;90767;-61
2022/07/14 12:31:04;;;;;;;1.48;0.80;;;;;;;;;;5081153;27;89145;-62
2022/07/14 12:33:33;;;;;;;0.70;0.70;;;;;;;;;;4980588;28;88162;-62
2022/07/14 12:36:00;;;;;;;0.65;0.55;;;;;;;;;;4978461;28;89089;-61
2022/07/14 12:38:27;;;;;;;1.30;0.88;;;;;;;;;;4978618;28;88879;-62
2022/07/14 12:40:57;;;;;;;1.40;0.70;;;;;;;;;;4978218;28;89273;-62
2022/07/14 12:43:30;;;;;;;0.80;0.60;;;;;;;;;;4978855;28;87397;-61
2022/07/14 12:46:02;;;;;;;2.08;0.60;;;;;;;;;;4986726;28;87978;-62
2022/07/14 12:48:30;;;;;;;1.50;0.60;;;;;;;;;;4998267;28;88795;-62
2022/07/14 12:51:14;;;;;;;1.23;0.60;;;;;;;;;;4997880;28;89974;-62
2022/07/14 12:53:57;;;;;;;0.90;0.50;;;;;;;;;;4998200;28;89308;-62
2022/07/14 12:56:23;;;;;;;1.80;0.55;;;;;;;;;;5000838;28;88029;-61
2022/07/14 12:58:50;;;;;;;1.42;0.93;;;;;;;;;;4997972;28;89441;-62
2022/07/14 13:01:16;;;;;;;2.03;0.82;;;;;;;;;;4997507;28;88555;-62
2022/07/14 13:03:53;;;;;;;3.15;0.60;;;;;;;;;;4997026;28;89736;-61
2022/07/14 13:06:19;;;;;;;2.53;0.45;;;;;;;;;;4998367;28;87961;-62
2022/07/14 13:08:45;;;;;;;0.95;0.70;;;;;;;;;;5079645;27;88800;-62
2022/07/14 13:11:12;;;;;;;0.98;0.50;;;;;;;;;;5080404;27;88879;-62
2022/07/14 13:13:42;;;;;;;0.90;0.60;;;;;;;;;;5080521;27;88120;-62
2022/07/14 13:16:16;;;;;;;0.68;0.50;;;;;;;;;;5079860;27;88976;-62
2022/07/14 13:19:01;;;;;;;0.68;0.50;;;;;;;;;;5083493;27;89155;-62
2022/07/14 13:21:49;;;;;;;1.90;0.80;;;;;;;;;;5081070;27;91072;-62
2022/07/14 13:24:36;;;;;;;0.93;0.60;;;;;;;;;;5079724;27;88951;-62
2022/07/14 13:27:04;;;;;;;0.93;0.60;;;;;;;;;;5066208;27;87974;-62
2022/07/14 13:29:32;;;;;;;0.95;0.50;;;;;;;;;;5080830;27;89929;-62
2022/07/14 13:31:58;;;;;;;0.65;0.52;;;;;;;;;;5080275;27;90041;-63
2022/07/14 13:34:25;;;;;;;0.82;0.50;;;;;;;;;;5080410;27;88245;-61
2022/07/14 13:36:53;;;;;;;0.85;0.50;;;;;;;;;;5080610;27;88037;-61
2022/07/14 13:39:19;;;;;;;1.52;0.70;;;;;;;;;;5083492;27;89202;-62
2022/07/14 13:41:52;;;;;;;1.63;0.60;;;;;;;;;;5079897;27;88865;-62
2022/07/14 13:44:19;;;;;;;0.90;0.50;;;;;;;;;;5080106;27;88977;-61
2022/07/14 13:46:46;;;;;;;3.22;0.75;;;;;;;;;;5080496;27;89109;-62
2022/07/14 13:49:15;;;;;;;0.80;0.70;;;;;;;;;;5080577;27;88131;-62
2022/07/14 13:54:26;;;;;;;0.65;0.55;;;;;;;;;;5080307;27;87939;-62
2022/07/14 13:56:53;;;;;;;0.55;0.55;;;;;;;;;;5080210;27;88599;-62
2022/07/14 13:59:19;;;;;;;0.95;0.70;;;;;;;;;;5080412;27;88442;-62
2022/07/14 14:01:46;;;;;;;0.88;0.50;;;;;;;;;;5082814;27;88013;-61
2022/07/14 14:04:13;;;;;;;1.63;0.70;;;;;;;;;;5079802;27;88863;-62
2022/07/14 14:06:49;;;;;;;0.95;0.60;;;;;;;;;;5062807;27;88847;-62
2022/07/14 14:09:16;;;;;;;1.25;0.60;;;;;;;;;;5080116;27;90544;-62
2022/07/14 14:11:43;;;;;;;0.75;0.68;;;;;;;;;;5079321;27;88803;-62
2022/07/14 14:14:10;;;;;;;0.65;0.43;;;;;;;;;;5079813;27;87993;-62
2022/07/14 14:16:36;;;;;;;0.80;0.60;;;;;;;;;;5079755;27;88653;-62
2022/07/14 14:19:10;;;;;;;1.60;0.60;;;;;;;;;;5080024;27;90397;-62
2022/07/14 14:21:37;;;;;;;0.73;0.50;;;;;;;;;;5079678;27;87940;-62
2022/07/14 14:24:03;;;;;;;0.98;0.60;;;;;;;;;;5082242;27;88955;-62
2022/07/14 14:26:29;;;;;;;0.93;0.60;;;;;;;;;;5079748;27;87949;-61
2022/07/14 14:28:56;;;;;;;0.43;0.43;;;;;;;;;;5079822;27;90166;-62
2022/07/14 14:31:22;;;;;;;0.50;0.50;;;;;;;;;;5078706;27;89837;-62
2022/07/14 14:33:48;;;;;;;0.52;0.47;;;;;;;;;;5078820;27;88201;-61
2022/07/14 14:36:16;;;;;;;1.00;0.60;;;;;;;;;;5078829;27;90216;-62
2022/07/14 14:38:42;;;;;;;2.40;0.65;;;;;;;;;;5078864;27;89063;-62
2022/07/14 14:41:09;;;;;;;0.63;0.60;;;;;;;;;;5079339;27;88022;-62
2022/07/14 14:43:35;;;;;;;1.75;0.50;;;;;;;;;;5079243;27;87947;-62
2022/07/14 14:46:01;;;;;;;0.90;0.45;;;;;;;;;;5081972;27;89103;-62
2022/07/14 14:48:33;;;;;;;0.60;0.40;;;;;;;;;;5079483;27;88839;-62
2022/07/14 14:50:59;;;;;;;0.60;0.50;;;;;;;;;;5079304;27;89192;-62
2022/07/14 14:53:25;;;;;;;0.88;0.50;;;;;;;;;;5078858;27;88021;-62
2022/07/14 14:55:52;;;;;;;0.40;0.40;;;;;;;;;;5079033;27;89613;-61
2022/07/14 14:58:18;;;;;;;1.33;0.80;;;;;;;;;;5078757;27;89340;-62
2022/07/14 15:00:45;;;;;;;1.20;0.52;;;;;;;;;;5078957;27;87957;-62
2022/07/14 15:03:11;;;;;;;1.55;0.60;;;;;;;;;;5079030;27;90037;-62
2022/07/14 15:05:40;;;;;;;0.75;0.52;;;;;;;;;;5078704;27;89580;-61
2022/07/14 15:08:06;;;;;;;0.60;0.60;;;;;;;;;;5081875;27;87961;-61